Time,TemperatureF,DewpointF,PressureIn,WindDirection,WindDirectionDegrees,WindSpeedMPH,WindSpeedGustMPH,Humidity,HourlyPrecipIn,Conditions,Clouds,dailyrainin,SoftwareType,DateUTC
2013-05-27 05:58:00,70.1,64.3,30.07,North,11,31.0,37.0,82,0.00,,,0.00,Weather View 32 v70,2013-05-27 15:58:00,
2013-05-27 05:59:00,70.1,64.3,30.07,NNW,343,26.0,37.0,82,0.00,,,0.00,Weather View 32 v70,2013-05-27 15:59:00,
2013-05-27 06:00:00,70.2,64.4,30.07,North,4,28.0,37.0,82,0.00,,,0.00,Weather View 32 v70,2013-05-27 16:00:00,
2013-05-27 06:15:00,70.3,64.2,30.05,NNW,330,23.0,37.0,81,0.00,,,0.00,Weather View 32 v70,2013-05-27 16:15:00,
2013-05-27 06:26:00,70.2,64.4,30.05,NE,41,29.0,37.0,82,0.00,,,0.00,Weather View 32 v70,2013-05-27 16:26:00,
2013-05-27 06:27:00,70.7,64.6,30.05,NNW,337,24.0,37.0,81,0.00,,,0.00,Weather View 32 v70,2013-05-27 16:27:00,
2013-05-27 06:32:00,70.8,63.6,30.07,North,5,28.0,37.0,78,0.00,,,0.00,Weather View 32 v70,2013-05-27 16:32:00,
2013-05-27 06:37:00,70.8,63.6,30.07,NNW,332,20.0,37.0,78,0.00,,,0.00,Weather View 32 v70,2013-05-27 16:37:00,
2013-05-27 06:42:00,71.0,63.8,30.08,North,356,27.0,37.0,78,0.00,,,0.00,Weather View 32 v70,2013-05-27 16:42:00,
2013-05-27 06:47:00,70.9,63.7,30.07,North,357,22.0,34.0,78,0.00,,,0.00,Weather View 32 v70,2013-05-27 16:47:00,
2013-05-27 06:52:00,71.1,63.1,30.07,NNE,12,17.0,34.0,76,0.00,,,0.00,Weather View 32 v70,2013-05-27 16:52:00,
2013-05-27 06:57:00,70.8,63.9,30.08,North,9,29.0,37.0,79,0.00,,,0.00,Weather View 32 v70,2013-05-27 16:57:00,
2013-05-27 07:02:00,70.5,64.0,30.08,NNW,346,31.0,37.0,80,0.00,,,0.00,Weather View 32 v70,2013-05-27 17:02:00,
2013-05-27 07:07:00,70.7,64.2,30.08,NNE,12,26.0,37.0,80,0.00,,,0.00,Weather View 32 v70,2013-05-27 17:07:00,
2013-05-27 07:12:00,70.7,64.2,30.08,NNE,26,20.0,37.0,80,0.00,,,0.00,Weather View 32 v70,2013-05-27 17:12:00,
2013-05-27 07:17:00,70.9,64.4,30.08,North,349,30.0,37.0,80,0.00,,,0.00,Weather View 32 v70,2013-05-27 17:17:00,
2013-05-27 07:22:00,70.6,64.5,30.08,North,349,18.0,37.0,81,0.00,,,0.00,Weather View 32 v70,2013-05-27 17:22:00,
2013-05-27 07:27:00,70.8,63.9,30.08,North,356,24.0,37.0,79,0.00,,,0.00,Weather View 32 v70,2013-05-27 17:27:00,
2013-05-27 07:32:00,70.7,63.8,30.07,North,354,33.0,37.0,79,0.00,,,0.00,Weather View 32 v70,2013-05-27 17:32:00,
2013-05-27 07:37:00,70.8,63.9,30.09,North,351,30.0,37.0,79,0.00,,,0.00,Weather View 32 v70,2013-05-27 17:37:00,
2013-05-27 07:42:00,71.1,63.9,30.08,North,353,22.0,37.0,78,0.00,,,0.00,Weather View 32 v70,2013-05-27 17:42:00,
2013-05-27 07:47:00,71.4,63.0,30.08,North,8,19.0,37.0,75,0.00,,,0.00,Weather View 32 v70,2013-05-27 17:47:00,
2013-05-27 07:52:00,71.6,63.2,30.09,NNW,341,29.0,38.0,75,0.00,,,0.00,Weather View 32 v70,2013-05-27 17:52:00,
2013-05-27 07:57:00,72.2,62.6,30.08,North,1,26.0,38.0,72,0.00,,,0.00,Weather View 32 v70,2013-05-27 17:57:00,
2013-05-27 08:05:00,72.5,62.9,30.08,North,351,25.0,38.0,72,0.00,,,0.00,Weather View 32 v70,2013-05-27 18:05:00,
2013-05-27 08:10:00,72.8,62.4,30.08,North,353,22.0,38.0,70,0.00,,,0.00,Weather View 32 v70,2013-05-27 18:10:00,
2013-05-27 08:15:00,72.2,63.8,30.08,NNE,25,20.0,38.0,75,0.00,,,0.00,Weather View 32 v70,2013-05-27 18:15:00,
2013-05-27 08:21:00,71.7,63.7,30.09,NNW,334,14.0,38.0,76,0.00,,,0.00,Weather View 32 v70,2013-05-27 18:21:00,
2013-05-27 08:26:00,72.0,63.6,30.08,NW,321,31.0,38.0,75,0.00,,,0.00,Weather View 32 v70,2013-05-27 18:26:00,
2013-05-27 08:32:00,72.1,64.1,30.09,North,5,24.0,38.0,76,0.00,,,0.00,Weather View 32 v70,2013-05-27 18:32:00,
2013-05-27 08:37:00,72.5,63.7,30.09,North,357,25.0,38.0,74,0.00,,,0.00,Weather View 32 v70,2013-05-27 18:37:00,
2013-05-27 08:43:00,73.2,63.6,30.07,North,2,31.0,38.0,72,0.00,,,0.00,Weather View 32 v70,2013-05-27 18:43:00,
2013-05-27 08:48:00,72.9,63.3,30.08,NNE,27,13.0,34.0,72,0.00,,,0.00,Weather View 32 v70,2013-05-27 18:48:00,
2013-05-27 08:53:00,73.5,64.3,30.09,NNW,337,24.0,34.0,73,0.00,,,0.00,Weather View 32 v70,2013-05-27 18:53:00,
2013-05-27 09:02:00,73.6,63.2,30.09,North,6,22.0,34.0,70,0.00,,,0.00,Weather View 32 v70,2013-05-27 19:02:00,
2013-05-27 09:07:00,72.7,64.3,30.09,NNE,12,22.0,37.0,75,0.00,,,0.00,Weather View 32 v70,2013-05-27 19:07:00,
2013-05-27 09:14:00,72.0,64.7,30.09,North,355,32.0,39.0,78,0.00,,,0.00,Weather View 32 v70,2013-05-27 19:14:00,
2013-05-27 09:20:00,71.3,64.4,30.09,NNW,341,28.0,39.0,79,0.00,,,0.00,Weather View 32 v70,2013-05-27 19:20:00,
2013-05-27 09:25:00,71.9,65.4,30.10,NW,316,26.0,39.0,80,0.00,,,0.00,Weather View 32 v70,2013-05-27 19:25:00,
2013-05-27 09:32:00,72.1,64.8,30.09,NNE,16,19.0,39.0,78,0.00,,,0.00,Weather View 32 v70,2013-05-27 19:32:00,
2013-05-27 09:37:00,72.3,64.3,30.10,NNE,17,29.0,39.0,76,0.00,,,0.00,Weather View 32 v70,2013-05-27 19:37:00,
2013-05-27 09:40:00,72.8,64.8,30.10,NNE,29,19.0,39.0,76,0.00,,,0.00,Weather View 32 v70,2013-05-27 19:40:00,
2013-05-27 09:42:00,73.0,63.4,30.09,North,10,17.0,39.0,72,0.00,,,0.00,Weather View 32 v70,2013-05-27 19:42:00,
2013-05-27 09:45:00,73.2,63.6,30.09,NNW,334,17.0,39.0,72,0.00,,,0.00,Weather View 32 v70,2013-05-27 19:45:00,
2013-05-27 09:47:00,73.8,63.8,30.09,NNE,16,28.0,39.0,71,0.00,,,0.00,Weather View 32 v70,2013-05-27 19:47:00,
2013-05-27 09:50:00,73.6,63.2,30.09,NNW,334,16.0,39.0,70,0.00,,,0.00,Weather View 32 v70,2013-05-27 19:50:00,
2013-05-27 09:55:00,73.7,63.7,30.09,North,353,21.0,39.0,71,0.00,,,0.00,Weather View 32 v70,2013-05-27 19:55:00,
2013-05-27 10:00:00,73.9,63.5,30.08,NNW,347,20.0,39.0,70,0.00,,,0.00,Weather View 32 v70,2013-05-27 20:00:00,
2013-05-27 10:06:00,73.3,64.1,30.07,North,1,27.0,39.0,73,0.00,,,0.00,Weather View 32 v70,2013-05-27 20:06:00,
2013-05-27 10:11:00,72.7,64.7,30.08,North,3,21.0,38.0,76,0.00,,,0.00,Weather View 32 v70,2013-05-27 20:11:00,
2013-05-27 10:18:00,72.2,64.6,30.10,North,352,20.0,34.0,77,0.00,,,0.00,Weather View 32 v70,2013-05-27 20:18:00,
2013-05-27 10:23:00,73.1,65.4,30.10,North,8,20.0,32.0,77,0.00,,,0.00,Weather View 32 v70,2013-05-27 20:23:00,
2013-05-27 10:28:00,73.0,64.2,30.08,NNW,348,20.0,32.0,74,0.00,,,0.00,Weather View 32 v70,2013-05-27 20:28:00,
2013-05-27 10:34:00,73.6,64.0,30.07,NNW,339,23.0,32.0,72,0.00,,,0.00,Weather View 32 v70,2013-05-27 20:34:00,
2013-05-27 10:40:00,73.9,63.5,30.09,NNW,348,20.0,32.0,70,0.00,,,0.00,Weather View 32 v70,2013-05-27 20:40:00,
2013-05-27 10:46:00,73.8,63.8,30.09,North,1,9.0,32.0,71,0.00,,,0.00,Weather View 32 v70,2013-05-27 20:46:00,
2013-05-27 10:51:00,74.8,63.5,30.08,North,360,24.0,32.0,68,0.00,,,0.00,Weather View 32 v70,2013-05-27 20:51:00,
2013-05-27 10:56:00,73.8,63.8,30.09,NE,34,15.0,32.0,71,0.00,,,0.00,Weather View 32 v70,2013-05-27 20:56:00,
2013-05-27 11:01:00,74.5,64.8,30.08,NNW,331,20.0,32.0,72,0.00,,,0.00,Weather View 32 v70,2013-05-27 21:01:00,
2013-05-27 11:06:00,74.2,64.2,30.09,WNW,298,10.0,32.0,71,0.00,,,0.00,Weather View 32 v70,2013-05-27 21:06:00,
2013-05-27 11:13:00,73.8,64.2,30.09,North,4,15.0,32.0,72,0.00,,,0.00,Weather View 32 v70,2013-05-27 21:13:00,
2013-05-27 11:20:00,73.9,63.9,30.08,NNE,14,18.0,31.0,71,0.00,,,0.00,Weather View 32 v70,2013-05-27 21:20:00,
2013-05-27 11:25:00,74.0,65.5,30.09,NNW,334,23.0,32.0,75,0.00,,,0.00,Weather View 32 v70,2013-05-27 21:25:00,
2013-05-27 11:31:00,74.1,65.2,30.09,North,353,20.0,32.0,74,0.00,,,0.00,Weather View 32 v70,2013-05-27 21:31:00,
2013-05-27 11:37:00,73.8,65.3,30.08,NW,323,25.0,32.0,75,0.00,,,0.00,Weather View 32 v70,2013-05-27 21:37:00,
2013-05-27 11:43:00,74.4,65.5,30.09,NNE,18,23.0,32.0,74,0.00,,,0.00,Weather View 32 v70,2013-05-27 21:43:00,
2013-05-27 11:49:00,73.9,65.1,30.09,North,357,20.0,33.0,74,0.00,,,0.00,Weather View 32 v70,2013-05-27 21:49:00,
2013-05-27 11:55:00,73.8,65.0,30.09,NNW,347,21.0,33.0,74,0.00,,,0.00,Weather View 32 v70,2013-05-27 21:55:00,
2013-05-27 12:00:00,73.3,65.2,30.08,North,8,25.0,34.0,76,0.00,,,0.00,Weather View 32 v70,2013-05-27 22:00:00,
2013-05-27 12:02:00,73.7,64.9,30.09,NNE,21,13.0,34.0,74,0.00,,,0.00,Weather View 32 v70,2013-05-27 22:02:00,
2013-05-27 12:05:00,73.8,65.3,30.08,North,9,15.0,34.0,75,0.00,,,0.00,Weather View 32 v70,2013-05-27 22:05:00,
2013-05-27 12:09:00,73.8,65.7,30.09,NNE,14,18.0,34.0,76,0.00,,,0.00,Weather View 32 v70,2013-05-27 22:09:00,
2013-05-27 12:14:00,74.0,65.5,30.09,North,355,24.0,34.0,75,0.00,,,0.00,Weather View 32 v70,2013-05-27 22:14:00,
2013-05-27 12:19:00,73.7,65.3,30.08,North,8,23.0,34.0,75,0.00,,,0.00,Weather View 32 v70,2013-05-27 22:19:00,
2013-05-27 12:24:00,73.7,64.9,30.08,North,8,26.0,35.0,74,0.00,,,0.00,Weather View 32 v70,2013-05-27 22:24:00,
2013-05-27 12:29:00,73.5,64.3,30.07,NNW,342,23.0,35.0,73,0.00,,,0.00,Weather View 32 v70,2013-05-27 22:29:00,
2013-05-27 12:35:00,73.2,64.0,30.08,NW,320,15.0,35.0,73,0.00,,,0.00,Weather View 32 v70,2013-05-27 22:35:00,
2013-05-27 12:42:00,73.9,64.7,30.08,North,358,28.0,35.0,73,0.00,,,0.00,Weather View 32 v70,2013-05-27 22:42:00,
2013-05-27 12:47:00,73.8,64.6,30.09,NW,324,26.0,35.0,73,0.00,,,0.00,Weather View 32 v70,2013-05-27 22:47:00,
2013-05-27 12:54:00,73.9,63.5,30.08,North,6,24.0,35.0,70,0.00,,,0.00,Weather View 32 v70,2013-05-27 22:54:00,
2013-05-27 12:59:00,72.3,64.7,30.07,NNW,340,24.0,38.0,77,0.00,,,0.00,Weather View 32 v70,2013-05-27 22:59:00,
2013-05-27 13:04:00,72.3,65.0,30.08,North,5,17.0,38.0,78,0.00,,,0.00,Weather View 32 v70,2013-05-27 23:04:00,
2013-05-27 13:10:00,71.8,64.5,30.08,NNW,339,14.0,38.0,78,0.00,,,0.00,Weather View 32 v70,2013-05-27 23:10:00,
2013-05-27 13:16:00,71.4,64.9,30.08,North,349,18.0,38.0,80,0.00,,,0.00,Weather View 32 v70,2013-05-27 23:16:00,
2013-05-27 13:25:00,71.4,64.9,30.08,North,355,24.0,38.0,80,0.00,,,0.00,Weather View 32 v70,2013-05-27 23:25:00,
2013-05-27 13:30:00,71.4,64.2,30.08,North,359,16.0,38.0,78,0.00,,,0.00,Weather View 32 v70,2013-05-27 23:30:00,
2013-05-27 13:31:00,71.5,64.3,30.08,NNE,16,17.0,38.0,78,0.00,,,0.00,Weather View 32 v70,2013-05-27 23:31:00,
2013-05-27 13:35:00,71.7,64.1,30.08,North,359,19.0,38.0,77,0.00,,,0.00,Weather View 32 v70,2013-05-27 23:35:00,
2013-05-27 13:38:00,71.8,64.5,30.07,North,349,16.0,38.0,78,0.00,,,0.00,Weather View 32 v70,2013-05-27 23:38:00,
2013-05-27 13:40:00,71.6,64.4,30.07,North,4,19.0,38.0,78,0.00,,,0.00,Weather View 32 v70,2013-05-27 23:40:00,
2013-05-27 13:44:00,71.5,64.3,30.08,North,8,19.0,38.0,78,0.00,,,0.00,Weather View 32 v70,2013-05-27 23:44:00,
2013-05-27 13:49:00,71.5,64.3,30.08,North,6,14.0,38.0,78,0.00,,,0.00,Weather View 32 v70,2013-05-27 23:49:00,
2013-05-27 13:55:00,71.3,64.1,30.09,North,1,5.0,38.0,78,0.00,,,0.00,Weather View 32 v70,2013-05-27 23:55:00,
2013-05-27 13:56:00,71.4,64.2,30.08,North,351,16.0,38.0,78,0.00,,,0.00,Weather View 32 v70,2013-05-27 23:56:00,
2013-05-27 14:02:00,71.5,63.5,30.07,North,357,21.0,34.0,76,0.00,,,0.00,Weather View 32 v70,2013-05-28 00:02:00,
2013-05-27 14:07:00,71.7,62.9,30.08,North,353,14.0,34.0,74,0.00,,,0.00,Weather View 32 v70,2013-05-28 00:07:00,
2013-05-27 14:13:00,72.2,62.6,30.07,NE,37,12.0,34.0,72,0.00,,,0.00,Weather View 32 v70,2013-05-28 00:13:00,
2013-05-27 14:20:00,73.1,63.1,30.07,NNE,15,18.0,34.0,71,0.00,,,0.00,Weather View 32 v70,2013-05-28 00:20:00,
2013-05-27 14:26:00,73.4,62.6,30.06,NNE,14,22.0,35.0,69,0.00,,,0.00,Weather View 32 v70,2013-05-28 00:26:00,
2013-05-27 14:31:00,73.2,63.2,30.06,North,10,29.0,35.0,71,0.00,,,0.00,Weather View 32 v70,2013-05-28 00:31:00,
2013-05-27 14:36:00,73.4,63.4,30.06,NNW,339,17.0,35.0,71,0.00,,,0.00,Weather View 32 v70,2013-05-28 00:36:00,
2013-05-27 14:42:00,73.4,64.2,30.06,NNW,339,25.0,35.0,73,0.00,,,0.00,Weather View 32 v70,2013-05-28 00:42:00,
2013-05-27 14:47:00,72.7,64.7,30.06,North,11,19.0,35.0,76,0.00,,,0.00,Weather View 32 v70,2013-05-28 00:47:00,
2013-05-27 14:50:00,72.6,64.9,30.06,NW,322,18.0,35.0,77,0.00,,,0.00,Weather View 32 v70,2013-05-28 00:50:00,
2013-05-27 14:52:00,72.5,64.9,30.05,North,354,24.0,35.0,77,0.00,,,0.00,Weather View 32 v70,2013-05-28 00:52:00,
2013-05-27 14:58:00,72.9,65.2,30.05,North,349,25.0,35.0,77,0.00,,,0.00,Weather View 32 v70,2013-05-28 00:58:00,
2013-05-27 15:03:00,72.6,65.3,30.06,NNE,26,17.0,35.0,78,0.00,,,0.00,Weather View 32 v70,2013-05-28 01:03:00,
2013-05-27 15:09:00,72.2,64.9,30.05,NW,318,20.0,35.0,78,0.00,,,0.00,Weather View 32 v70,2013-05-28 01:09:00,
2013-05-27 15:15:00,72.3,65.0,30.05,NNW,341,20.0,35.0,78,0.00,,,0.00,Weather View 32 v70,2013-05-28 01:15:00,
2013-05-27 15:21:00,72.3,65.0,30.04,NNW,343,28.0,35.0,78,0.00,,,0.00,Weather View 32 v70,2013-05-28 01:21:00,
2013-05-27 15:26:00,72.0,65.1,30.04,NNW,347,28.0,34.0,79,0.00,,,0.00,Weather View 32 v70,2013-05-28 01:26:00,
2013-05-27 15:32:00,71.9,65.4,30.05,North,7,26.0,35.0,80,0.00,,,0.00,Weather View 32 v70,2013-05-28 01:32:00,
2013-05-27 15:37:00,71.7,65.2,30.05,North,359,17.0,35.0,80,0.00,,,0.00,Weather View 32 v70,2013-05-28 01:37:00,
2013-05-27 15:44:00,71.9,65.0,30.04,North,353,19.0,35.0,79,0.00,,,0.00,Weather View 32 v70,2013-05-28 01:44:00,
2013-05-27 15:49:00,72.1,64.8,30.06,NNE,17,13.0,35.0,78,0.00,,,0.00,Weather View 32 v70,2013-05-28 01:49:00,
2013-05-27 15:54:00,72.4,65.1,30.05,NNW,341,12.0,35.0,78,0.00,,,0.00,Weather View 32 v70,2013-05-28 01:54:00,
2013-05-27 15:59:00,72.3,65.0,30.05,NNW,341,31.0,35.0,78,0.00,,,0.00,Weather View 32 v70,2013-05-28 01:59:00,
2013-05-27 16:05:00,72.3,65.0,30.05,NNW,332,16.0,35.0,78,0.00,,,0.00,Weather View 32 v70,2013-05-28 02:05:00,
2013-05-27 16:10:00,72.3,65.0,30.04,NNW,333,20.0,35.0,78,0.00,,,0.00,Weather View 32 v70,2013-05-28 02:10:00,
2013-05-27 16:16:00,72.6,64.9,30.05,North,353,18.0,35.0,77,0.00,,,0.00,Weather View 32 v70,2013-05-28 02:16:00,
2013-05-27 16:20:00,72.3,65.4,30.05,North,351,11.0,35.0,79,0.00,,,0.00,Weather View 32 v70,2013-05-28 02:20:00,
2013-05-27 16:21:00,72.2,65.3,30.05,NNW,328,19.0,35.0,79,0.00,,,0.00,Weather View 32 v70,2013-05-28 02:21:00,
2013-05-27 16:25:00,72.3,65.4,30.04,NNE,25,9.0,35.0,79,0.00,,,0.00,Weather View 32 v70,2013-05-28 02:25:00,
2013-05-27 16:27:00,72.2,65.3,30.04,North,5,24.0,35.0,79,0.00,,,0.00,Weather View 32 v70,2013-05-28 02:27:00,
2013-05-27 16:30:00,72.1,65.6,30.05,NNE,17,18.0,33.0,80,0.00,,,0.00,Weather View 32 v70,2013-05-28 02:30:00,
2013-05-27 16:33:00,72.0,65.8,30.04,North,4,19.0,33.0,81,0.00,,,0.00,Weather View 32 v70,2013-05-28 02:33:00,
2013-05-27 16:38:00,72.0,65.8,30.04,NNW,345,17.0,33.0,81,0.00,,,0.00,Weather View 32 v70,2013-05-28 02:38:00,
2013-05-27 16:44:00,72.1,65.9,30.04,NNW,342,22.0,33.0,81,0.00,,,0.00,Weather View 32 v70,2013-05-28 02:44:00,
2013-05-27 16:45:00,72.1,65.9,30.04,NNW,348,24.0,33.0,81,0.00,,,0.00,Weather View 32 v70,2013-05-28 02:45:00,
2013-05-27 16:50:00,71.9,66.1,30.05,NNW,335,20.0,33.0,82,0.00,,,0.00,Weather View 32 v70,2013-05-28 02:50:00,
2013-05-27 16:55:00,72.0,66.2,30.05,North,358,15.0,33.0,82,0.00,,,0.00,Weather View 32 v70,2013-05-28 02:55:00,
2013-05-27 17:01:00,71.9,66.4,30.05,North,10,19.0,33.0,83,0.00,,,0.00,Weather View 32 v70,2013-05-28 03:01:00,
2013-05-27 17:05:00,71.7,66.2,30.04,NNW,343,18.0,30.0,83,0.00,,,0.00,Weather View 32 v70,2013-05-28 03:05:00,
2013-05-27 17:06:00,71.7,66.2,30.04,North,359,18.0,30.0,83,0.00,,,0.00,Weather View 32 v70,2013-05-28 03:06:00,
2013-05-27 17:11:00,71.7,66.2,30.04,North,6,18.0,30.0,83,0.00,,,0.00,Weather View 32 v70,2013-05-28 03:11:00,
2013-05-27 17:16:00,71.6,66.1,30.05,NNE,32,17.0,30.0,83,0.00,,,0.00,Weather View 32 v70,2013-05-28 03:16:00,
2013-05-27 17:21:00,71.3,65.8,30.04,North,355,25.0,30.0,83,0.00,,,0.00,Weather View 32 v70,2013-05-28 03:21:00,
2013-05-27 17:26:00,71.2,65.8,30.05,NNE,14,16.0,30.0,83,0.00,,,0.00,Weather View 32 v70,2013-05-28 03:26:00,
2013-05-27 17:31:00,71.1,64.9,30.05,NNW,337,10.0,31.0,81,0.00,,,0.00,Weather View 32 v70,2013-05-28 03:31:00,
2013-05-27 17:36:00,71.2,65.0,30.05,North,10,10.0,31.0,81,0.00,,,0.00,Weather View 32 v70,2013-05-28 03:36:00,
2013-05-27 17:41:00,71.3,64.8,30.05,NW,318,18.0,31.0,80,0.00,,,0.00,Weather View 32 v70,2013-05-28 03:41:00,
2013-05-27 17:46:00,71.3,65.1,30.05,NNW,347,14.0,31.0,81,0.00,,,0.00,Weather View 32 v70,2013-05-28 03:46:00,
2013-05-27 17:51:00,71.2,65.0,30.05,NW,322,18.0,31.0,81,0.00,,,0.00,Weather View 32 v70,2013-05-28 03:51:00,
2013-05-27 17:56:00,71.3,65.5,30.05,NW,314,18.0,31.0,82,0.00,,,0.00,Weather View 32 v70,2013-05-28 03:56:00,
2013-05-27 18:01:00,71.4,65.2,30.05,NNW,337,10.0,31.0,81,0.00,,,0.00,Weather View 32 v70,2013-05-28 04:01:00,
2013-05-27 18:06:00,71.6,65.1,30.05,NW,319,9.0,31.0,80,0.00,,,0.00,Weather View 32 v70,2013-05-28 04:06:00,
2013-05-27 18:11:00,71.7,65.2,30.05,NW,314,11.0,31.0,80,0.00,,,0.00,Weather View 32 v70,2013-05-28 04:11:00,
2013-05-27 18:16:00,71.9,65.0,30.05,NNW,340,15.0,31.0,79,0.00,,,0.00,Weather View 32 v70,2013-05-28 04:16:00,
2013-05-27 18:21:00,72.0,64.7,30.05,North,355,8.0,31.0,78,0.00,,,0.00,Weather View 32 v70,2013-05-28 04:21:00,
2013-05-27 18:26:00,72.0,64.7,30.06,NW,322,16.0,31.0,78,0.00,,,0.00,Weather View 32 v70,2013-05-28 04:26:00,
2013-05-27 18:31:00,72.0,64.7,30.06,NW,313,10.0,28.0,78,0.00,,,0.00,Weather View 32 v70,2013-05-28 04:31:00,
2013-05-27 18:36:00,72.0,64.7,30.06,NNW,345,11.0,28.0,78,0.00,,,0.00,Weather View 32 v70,2013-05-28 04:36:00,
2013-05-27 18:41:00,72.1,64.8,30.06,West,263,14.0,28.0,78,0.00,,,0.00,Weather View 32 v70,2013-05-28 04:41:00,
2013-05-27 18:46:00,72.0,65.1,30.06,NNW,331,10.0,28.0,79,0.00,,,0.00,Weather View 32 v70,2013-05-28 04:46:00,
2013-05-27 18:51:00,72.1,64.8,30.05,NW,309,17.0,28.0,78,0.00,,,0.00,Weather View 32 v70,2013-05-28 04:51:00,
2013-05-27 18:56:00,72.3,64.3,30.06,WNW,292,9.0,26.0,76,0.00,,,0.00,Weather View 32 v70,2013-05-28 04:56:00,
2013-05-27 19:01:00,72.6,64.2,30.06,NW,325,12.0,25.0,75,0.00,,,0.00,Weather View 32 v70,2013-05-28 05:01:00,
2013-05-27 19:06:00,72.9,63.7,30.06,SW,218,5.0,25.0,73,0.00,,,0.00,Weather View 32 v70,2013-05-28 05:06:00,
2013-05-27 19:11:00,73.1,63.9,30.06,NNE,18,15.0,25.0,73,0.00,,,0.00,Weather View 32 v70,2013-05-28 05:11:00,
2013-05-27 19:16:00,73.0,63.8,30.07,NNE,23,15.0,25.0,73,0.00,,,0.00,Weather View 32 v70,2013-05-28 05:16:00,
2013-05-27 19:21:00,72.7,63.9,30.07,NNE,18,18.0,25.0,74,0.00,,,0.00,Weather View 32 v70,2013-05-28 05:21:00,
2013-05-27 19:26:00,72.5,64.1,30.06,NNE,22,22.0,25.0,75,0.00,,,0.00,Weather View 32 v70,2013-05-28 05:26:00,
2013-05-27 19:31:00,72.2,64.2,30.07,North,4,23.0,32.0,76,0.00,,,0.00,Weather View 32 v70,2013-05-28 05:31:00,
2013-05-27 19:36:00,72.1,64.5,30.08,North,349,10.0,32.0,77,0.00,,,0.00,Weather View 32 v70,2013-05-28 05:36:00,
2013-05-27 19:41:00,72.0,64.4,30.08,North,1,9.0,32.0,77,0.00,,,0.00,Weather View 32 v70,2013-05-28 05:41:00,
2013-05-27 19:46:00,72.6,64.2,30.08,North,355,11.0,32.0,75,0.00,,,0.00,Weather View 32 v70,2013-05-28 05:46:00,
2013-05-27 19:51:00,72.8,64.0,30.08,North,360,10.0,32.0,74,0.00,,,0.00,Weather View 32 v70,2013-05-28 05:51:00,
2013-05-27 19:56:00,72.6,63.8,30.08,North,4,15.0,32.0,74,0.00,,,0.00,Weather View 32 v70,2013-05-28 05:56:00,
2013-05-27 20:01:00,72.5,64.1,30.09,NNW,334,7.0,32.0,75,0.00,,,0.00,Weather View 32 v70,2013-05-28 06:01:00,
2013-05-27 20:06:00,72.6,64.2,30.09,North,357,9.0,32.0,75,0.00,,,0.00,Weather View 32 v70,2013-05-28 06:06:00,
2013-05-27 20:11:00,72.7,63.9,30.09,NNW,337,7.0,32.0,74,0.00,,,0.00,Weather View 32 v70,2013-05-28 06:11:00,
2013-05-27 20:16:00,73.1,63.9,30.09,NW,314,10.0,32.0,73,0.00,,,0.00,Weather View 32 v70,2013-05-28 06:16:00,
2013-05-27 20:21:00,73.3,64.1,30.09,NW,324,5.0,32.0,73,0.00,,,0.00,Weather View 32 v70,2013-05-28 06:21:00,
2013-05-27 20:26:00,73.4,64.2,30.10,North,359,5.0,32.0,73,0.00,,,0.00,Weather View 32 v70,2013-05-28 06:26:00,
2013-05-27 20:31:00,73.4,64.2,30.10,NNE,28,3.0,25.0,73,0.00,,,0.00,Weather View 32 v70,2013-05-28 06:31:00,
2013-05-27 20:36:00,73.2,64.0,30.10,North,2,6.0,23.0,73,0.00,,,0.00,Weather View 32 v70,2013-05-28 06:36:00,
2013-05-27 20:41:00,73.1,63.9,30.10,NNE,14,16.0,22.0,73,0.00,,,0.00,Weather View 32 v70,2013-05-28 06:41:00,
2013-05-27 20:47:00,72.5,64.1,30.09,NNW,337,15.0,25.0,75,0.00,,,0.00,Weather View 32 v70,2013-05-28 06:47:00,
2013-05-27 20:52:00,72.0,64.4,30.09,NNW,339,11.0,25.0,77,0.00,,,0.00,Weather View 32 v70,2013-05-28 06:52:00,
2013-05-27 20:57:00,71.9,64.3,30.10,North,5,8.0,25.0,77,0.00,,,0.00,Weather View 32 v70,2013-05-28 06:57:00,
2013-05-27 21:02:00,71.9,64.3,30.10,North,7,10.0,25.0,77,0.00,,,0.00,Weather View 32 v70,2013-05-28 07:02:00,
2013-05-27 21:07:00,72.0,64.4,30.10,NNE,20,8.0,25.0,77,0.00,,,0.00,Weather View 32 v70,2013-05-28 07:07:00,
2013-05-27 21:12:00,71.8,64.2,30.10,NNW,330,4.0,25.0,77,0.00,,,0.00,Weather View 32 v70,2013-05-28 07:12:00,
2013-05-27 21:17:00,71.7,64.1,30.11,NNE,29,10.0,25.0,77,0.00,,,0.00,Weather View 32 v70,2013-05-28 07:17:00,
2013-05-27 21:22:00,71.7,64.1,30.11,NW,320,14.0,25.0,77,0.00,,,0.00,Weather View 32 v70,2013-05-28 07:22:00,
2013-05-27 21:27:00,72.4,63.6,30.11,NNE,16,7.0,25.0,74,0.00,,,0.00,Weather View 32 v70,2013-05-28 07:27:00,
2013-05-27 21:32:00,72.8,63.6,30.11,North,351,6.0,25.0,73,0.00,,,0.00,Weather View 32 v70,2013-05-28 07:32:00,
2013-05-27 21:37:00,72.8,63.6,30.11,NNW,336,6.0,25.0,73,0.00,,,0.00,Weather View 32 v70,2013-05-28 07:37:00,
2013-05-27 21:42:00,73.0,63.4,30.11,NW,313,3.0,25.0,72,0.00,,,0.00,Weather View 32 v70,2013-05-28 07:42:00,
2013-05-27 21:47:00,72.9,62.9,30.12,NW,311,2.0,20.0,71,0.00,,,0.00,Weather View 32 v70,2013-05-28 07:47:00,
2013-05-27 21:52:00,72.7,63.1,30.11,North,353,8.0,18.0,72,0.00,,,0.00,Weather View 32 v70,2013-05-28 07:52:00,
2013-05-27 21:57:00,72.6,63.4,30.12,North,10,14.0,18.0,73,0.00,,,0.00,Weather View 32 v70,2013-05-28 07:57:00,
2013-05-27 22:02:00,72.3,63.5,30.12,NE,36,6.0,18.0,74,0.00,,,0.00,Weather View 32 v70,2013-05-28 08:02:00,
2013-05-27 22:07:00,72.2,63.4,30.12,NW,319,8.0,18.0,74,0.00,,,0.00,Weather View 32 v70,2013-05-28 08:07:00,
2013-05-27 22:12:00,72.1,63.3,30.12,North,355,8.0,18.0,74,0.00,,,0.00,Weather View 32 v70,2013-05-28 08:12:00,
2013-05-27 22:17:00,72.3,63.5,30.12,NW,321,8.0,18.0,74,0.00,,,0.00,Weather View 32 v70,2013-05-28 08:17:00,
2013-05-27 22:22:00,72.8,63.2,30.12,NW,325,7.0,18.0,72,0.00,,,0.00,Weather View 32 v70,2013-05-28 08:22:00,
2013-05-27 22:27:00,73.0,63.0,30.12,North,8,7.0,18.0,71,0.00,,,0.00,Weather View 32 v70,2013-05-28 08:27:00,
2013-05-27 22:32:00,72.7,63.5,30.11,NNW,337,17.0,21.0,73,0.00,,,0.00,Weather View 32 v70,2013-05-28 08:32:00,
2013-05-27 22:37:00,72.6,63.4,30.12,NNW,329,17.0,21.0,73,0.00,,,0.00,Weather View 32 v70,2013-05-28 08:37:00,
2013-05-27 22:42:00,72.7,63.1,30.11,NNW,345,9.0,21.0,72,0.00,,,0.00,Weather View 32 v70,2013-05-28 08:42:00,
2013-05-27 22:47:00,72.8,63.2,30.11,NNW,345,6.0,21.0,72,0.00,,,0.00,Weather View 32 v70,2013-05-28 08:47:00,
2013-05-27 22:52:00,72.7,63.1,30.11,NW,310,4.0,21.0,72,0.00,,,0.00,Weather View 32 v70,2013-05-28 08:52:00,
2013-05-27 22:57:00,72.9,63.3,30.11,North,353,12.0,21.0,72,0.00,,,0.00,Weather View 32 v70,2013-05-28 08:57:00,
2013-05-27 23:02:00,72.7,63.1,30.11,North,357,13.0,21.0,72,0.00,,,0.00,Weather View 32 v70,2013-05-28 09:02:00,
2013-05-27 23:07:00,72.4,63.2,30.11,North,5,11.0,21.0,73,0.00,,,0.00,Weather View 32 v70,2013-05-28 09:07:00,
2013-05-27 23:12:00,72.3,63.1,30.11,North,353,11.0,21.0,73,0.00,,,0.00,Weather View 32 v70,2013-05-28 09:12:00,
2013-05-27 23:17:00,72.4,63.2,30.11,North,11,7.0,21.0,73,0.00,,,0.00,Weather View 32 v70,2013-05-28 09:17:00,
2013-05-27 23:22:00,72.3,63.5,30.11,NE,44,10.0,21.0,74,0.00,,,0.00,Weather View 32 v70,2013-05-28 09:22:00,
2013-05-27 23:27:00,72.4,63.2,30.11,NNE,29,5.0,21.0,73,0.00,,,0.00,Weather View 32 v70,2013-05-28 09:27:00,
2013-05-27 23:32:00,72.3,63.1,30.11,NW,305,2.0,21.0,73,0.00,,,0.00,Weather View 32 v70,2013-05-28 09:32:00,
2013-05-27 23:37:00,72.1,62.9,30.11,NW,316,2.0,18.0,73,0.00,,,0.00,Weather View 32 v70,2013-05-28 09:37:00,
2013-05-27 23:42:00,72.4,63.2,30.11,NW,322,6.0,18.0,73,0.00,,,0.00,Weather View 32 v70,2013-05-28 09:42:00,
2013-05-27 23:47:00,72.6,63.4,30.10,NW,309,8.0,18.0,73,0.00,,,0.00,Weather View 32 v70,2013-05-28 09:47:00,
2013-05-27 23:52:00,72.6,63.4,30.10,NNW,327,8.0,20.0,73,0.00,,,0.00,Weather View 32 v70,2013-05-28 09:52:00,
2013-05-27 23:57:00,72.5,63.3,30.10,NW,316,9.0,21.0,73,0.00,,,0.00,Weather View 32 v70,2013-05-28 09:57:00,